createdAt,value
2022-11-03T00:01:37.728Z,11.51
2022-11-03T00:04:06.963Z,11.56
2022-11-03T00:06:35.538Z,11.55
2022-11-03T00:09:06.080Z,11.58
2022-11-03T00:11:35.221Z,11.55
2022-11-03T00:14:05.433Z,11.54
2022-11-03T00:16:33.941Z,11.51
2022-11-03T00:19:01.845Z,11.47
2022-11-03T00:21:31.578Z,11.43
2022-11-03T00:23:59.789Z,11.41
2022-11-03T00:26:29.311Z,11.41
2022-11-03T00:29:00.520Z,11.47
2022-11-03T00:31:31.504Z,11.51
2022-11-03T00:34:00.691Z,11.53
2022-11-03T00:36:30.064Z,11.53
2022-11-03T00:38:58.343Z,11.53
2022-11-03T00:41:27.229Z,11.54
2022-11-03T00:43:55.866Z,11.52
2022-11-03T00:46:25.173Z,11.50
2022-11-03T00:48:54.557Z,11.38
2022-11-03T00:51:25.157Z,11.28
2022-11-03T00:53:54.990Z,11.21
2022-11-03T00:56:24.962Z,11.05
2022-11-03T00:58:54.235Z,11.07
2022-11-03T01:01:23.681Z,11.13
2022-11-03T01:04:12.510Z,11.12
2022-11-03T01:06:51.062Z,11.15
2022-11-03T01:09:20.385Z,11.15
2022-11-03T01:11:54.434Z,11.05
2022-11-03T01:14:22.749Z,10.82
2022-11-03T01:16:50.733Z,10.72
2022-11-03T01:19:20.256Z,10.73
2022-11-03T01:21:48.188Z,10.85
2022-11-03T01:24:16.296Z,10.99
2022-11-03T01:26:44.234Z,11.09
2022-11-03T01:29:12.238Z,11.13
2022-11-03T01:31:40.613Z,11.18
2022-11-03T01:34:08.575Z,11.19
2022-11-03T01:36:37.911Z,11.27
2022-11-03T01:39:05.792Z,11.22
2022-11-03T01:41:33.688Z,11.21
2022-11-03T01:44:31.045Z,11.22
2022-11-03T01:47:07.653Z,11.18
2022-11-03T01:49:41.739Z,11.16
2022-11-03T01:52:17.635Z,11.17
2022-11-03T01:54:50.056Z,11.17
2022-11-03T01:57:22.853Z,11.16
2022-11-03T01:59:51.152Z,11.20
2022-11-03T02:02:25.541Z,11.20
2022-11-03T02:04:54.987Z,11.21
2022-11-03T02:07:27.954Z,11.18
2022-11-03T02:09:55.908Z,11.19
2022-11-03T02:12:24.288Z,11.15
2022-11-03T02:14:55.991Z,11.16
2022-11-03T02:17:26.944Z,11.12
2022-11-03T02:19:59.158Z,10.98
2022-11-03T02:23:00.476Z,11.03
2022-11-03T02:25:47.842Z,10.99
2022-11-03T02:28:18.676Z,11.00
2022-11-03T02:30:51.523Z,10.91
2022-11-03T02:33:30.849Z,10.93
2022-11-03T02:36:04.782Z,10.98
2022-11-03T02:38:35.197Z,10.99
2022-11-03T02:41:08.771Z,10.99
2022-11-03T02:43:36.955Z,11.00
2022-11-03T02:46:06.941Z,10.97
2022-11-03T02:48:35.281Z,10.99
2022-11-03T02:51:04.919Z,11.04
2022-11-03T02:53:37.996Z,11.06
2022-11-03T02:56:12.658Z,11.06
2022-11-03T02:58:49.613Z,11.09
2022-11-03T03:01:24.254Z,10.99
2022-11-03T03:03:56.399Z,10.99
2022-11-03T03:06:27.453Z,10.97
2022-11-03T03:08:59.740Z,11.03
2022-11-03T03:11:38.996Z,11.04
2022-11-03T03:14:13.511Z,11.00
2022-11-03T03:16:52.141Z,10.91
2022-11-03T03:19:27.196Z,10.86
2022-11-03T03:21:57.386Z,10.77
2022-11-03T03:24:35.071Z,10.84
2022-11-03T03:27:09.779Z,10.82
2022-11-03T03:29:42.965Z,10.86
2022-11-03T03:32:12.900Z,10.88
2022-11-03T03:34:43.859Z,10.90
2022-11-03T03:37:14.925Z,10.91
2022-11-03T03:39:47.257Z,10.87
2022-11-03T03:42:18.528Z,10.85
2022-11-03T03:44:47.699Z,10.86
2022-11-03T03:47:20.459Z,10.83
2022-11-03T03:49:48.446Z,10.83
2022-11-03T03:52:17.209Z,10.85
2022-11-03T03:54:45.135Z,10.75
2022-11-03T03:57:17.952Z,10.71
2022-11-03T03:59:47.550Z,10.71
2022-11-03T04:02:15.713Z,10.71
2022-11-03T04:04:43.777Z,10.71
2022-11-03T04:07:29.322Z,10.74
2022-11-03T04:09:57.281Z,10.75
2022-11-03T04:12:44.509Z,10.73
2022-11-03T04:15:31.900Z,10.70
2022-11-03T04:18:17.774Z,10.72
2022-11-03T04:21:02.776Z,10.70
2022-11-03T04:23:30.720Z,10.67
2022-11-03T04:25:58.913Z,10.71
2022-11-03T04:28:28.445Z,10.73
2022-11-03T04:30:59.200Z,10.72
2022-11-03T04:33:27.675Z,10.76
2022-11-03T04:35:58.923Z,10.79
2022-11-03T04:38:28.699Z,10.77
2022-11-03T04:40:59.518Z,10.77
2022-11-03T04:43:34.985Z,10.77
2022-11-03T04:46:03.626Z,10.74
2022-11-03T04:48:31.915Z,10.72
2022-11-03T04:51:01.589Z,10.70
2022-11-03T04:53:31.961Z,10.73
2022-11-03T04:56:06.965Z,10.75
2022-11-03T04:58:37.421Z,10.74
2022-11-03T05:01:11.273Z,10.76
2022-11-03T05:03:41.870Z,10.76
2022-11-03T05:06:15.705Z,10.75
2022-11-03T05:08:46.369Z,10.73
2022-11-03T05:11:20.570Z,10.71
2022-11-03T05:13:51.299Z,10.74
2022-11-03T05:16:20.466Z,10.72
2022-11-03T05:18:50.784Z,10.71
2022-11-03T05:21:20.305Z,10.51
2022-11-03T05:23:51.910Z,10.57
2022-11-03T05:26:23.712Z,10.66
2022-11-03T05:28:56.610Z,10.71
2022-11-03T05:31:27.262Z,10.76
2022-11-03T05:33:58.747Z,10.78
2022-11-03T05:36:29.134Z,10.77
2022-11-03T05:39:00.688Z,10.74
2022-11-03T05:41:31.485Z,10.81
2022-11-03T05:44:04.573Z,10.73
2022-11-03T05:46:34.941Z,10.69
2022-11-03T05:49:04.255Z,10.73
2022-11-03T05:51:38.809Z,10.75
2022-11-03T05:54:17.058Z,10.76
2022-11-03T05:56:48.551Z,10.70
2022-11-03T05:59:24.150Z,10.63
2022-11-03T06:01:54.259Z,10.65
2022-11-03T06:04:29.612Z,10.59
2022-11-03T06:07:03.083Z,10.52
2022-11-03T06:09:34.820Z,10.55
2022-11-03T06:12:06.658Z,10.60
2022-11-03T06:14:37.740Z,10.61
2022-11-03T06:17:07.611Z,10.65
2022-11-03T06:19:39.219Z,10.65
2022-11-03T06:22:15.375Z,10.65
2022-11-03T06:24:43.716Z,10.65
2022-11-03T06:27:15.472Z,10.60
2022-11-03T06:29:50.047Z,10.61
2022-11-03T06:32:18.424Z,10.65
2022-11-03T06:34:48.429Z,10.64
2022-11-03T06:37:21.314Z,10.45
2022-11-03T06:39:50.533Z,10.21
2022-11-03T06:42:21.774Z,10.24
2022-11-03T06:44:52.614Z,10.31
2022-11-03T06:47:25.894Z,10.19
2022-11-03T06:49:55.844Z,10.20
2022-11-03T06:52:29.706Z,10.27
2022-11-03T06:55:13.713Z,10.44
2022-11-03T06:57:47.883Z,10.50
2022-11-03T07:00:40.390Z,10.53
2022-11-03T07:03:15.823Z,10.62
2022-11-03T07:05:46.244Z,10.66
2022-11-03T07:08:23.745Z,10.64
2022-11-03T07:10:58.428Z,10.66
2022-11-03T07:13:28.416Z,10.73
2022-11-03T07:15:57.719Z,10.77
2022-11-03T07:18:28.642Z,10.83
2022-11-03T07:20:57.237Z,10.87
2022-11-03T07:23:28.007Z,10.96
2022-11-03T07:25:59.749Z,11.04
2022-11-03T07:28:33.029Z,11.11
2022-11-03T07:31:16.135Z,11.18
2022-11-03T07:33:44.647Z,11.17
2022-11-03T07:36:17.322Z,11.18
2022-11-03T07:38:48.450Z,11.23
2022-11-03T07:41:20.657Z,11.25
2022-11-03T07:43:54.746Z,11.26
2022-11-03T07:46:25.225Z,11.26
2022-11-03T07:48:55.578Z,11.27
2022-11-03T07:51:26.250Z,11.22
2022-11-03T07:53:56.381Z,11.13
2022-11-03T07:56:26.693Z,11.15
2022-11-03T07:59:00.541Z,11.11
2022-11-03T08:01:32.492Z,11.11
2022-11-03T08:04:05.321Z,11.23
2022-11-03T08:06:33.974Z,11.38
2022-11-03T08:09:01.958Z,11.26
2022-11-03T08:11:30.157Z,11.33
2022-11-03T08:13:58.569Z,11.46
2022-11-03T08:16:26.922Z,11.57
2022-11-03T08:18:56.188Z,11.65
2022-11-03T08:21:24.444Z,11.67
2022-11-03T08:23:52.453Z,11.77
2022-11-03T08:26:20.407Z,11.86
2022-11-03T08:28:48.562Z,11.93
2022-11-03T08:31:16.816Z,12.00
2022-11-03T08:33:44.864Z,12.06
2022-11-03T08:36:14.376Z,12.17
2022-11-03T08:38:42.642Z,12.19
2022-11-03T08:41:10.535Z,12.19
2022-11-03T08:43:38.444Z,12.21
2022-11-03T08:46:15.892Z,12.25
2022-11-03T08:48:46.162Z,12.20
2022-11-03T08:51:16.590Z,12.14
2022-11-03T08:53:45.219Z,12.00
2022-11-03T08:56:15.072Z,11.90
2022-11-03T08:58:44.567Z,11.84
2022-11-03T09:01:13.027Z,11.88
2022-11-03T09:03:42.178Z,11.90
2022-11-03T09:06:10.478Z,12.01
2022-11-03T09:11:27.658Z,12.10
2022-11-03T09:13:55.815Z,12.25
2022-11-03T09:16:23.715Z,12.24
2022-11-03T09:18:51.630Z,12.28
2022-11-03T09:21:19.569Z,12.41
2022-11-03T09:23:49.046Z,12.30
2022-11-03T09:26:17.095Z,12.21
2022-11-03T09:28:45.097Z,12.32
2022-11-03T09:31:12.997Z,12.46
2022-11-03T09:33:40.941Z,12.59
2022-11-03T09:36:09.491Z,12.44
2022-11-03T09:38:37.468Z,12.52
2022-11-03T09:41:18.618Z,12.66
2022-11-03T09:43:57.433Z,12.86
2022-11-03T09:46:26.625Z,12.94
2022-11-03T09:48:55.808Z,12.89
2022-11-03T09:51:27.349Z,12.80
2022-11-03T09:53:57.969Z,12.90
2022-11-03T09:56:27.993Z,13.02
2022-11-03T09:58:55.929Z,13.08
2022-11-03T10:01:24.250Z,13.11
2022-11-03T10:03:52.752Z,13.15
2022-11-03T10:06:21.376Z,13.21
2022-11-03T10:08:50.424Z,13.32
2022-11-03T10:11:19.001Z,13.37
2022-11-03T10:13:53.542Z,13.47
2022-11-03T10:16:24.489Z,13.53
2022-11-03T10:18:53.348Z,13.55
2022-11-03T10:21:24.920Z,13.49
2022-11-03T10:23:52.978Z,13.52
2022-11-03T10:26:22.008Z,13.50
2022-11-03T10:29:02.196Z,13.42
2022-11-03T10:31:35.482Z,13.09
2022-11-03T10:34:04.151Z,13.25
2022-11-03T10:36:33.563Z,13.38
2022-11-03T10:39:21.579Z,13.47
2022-11-03T10:41:57.738Z,13.50
2022-11-03T10:44:27.926Z,13.52
2022-11-03T10:47:00.433Z,13.53
2022-11-03T10:49:30.773Z,13.62
2022-11-03T10:52:10.968Z,13.67
2022-11-03T10:54:38.891Z,13.63
2022-11-03T10:57:07.222Z,13.34
2022-11-03T10:59:38.989Z,13.32
2022-11-03T11:02:17.388Z,13.17
2022-11-03T11:04:46.934Z,13.17
2022-11-03T11:07:21.526Z,13.28
2022-11-03T11:09:49.499Z,13.25
2022-11-03T11:12:20.049Z,13.30
2022-11-03T11:15:00.269Z,13.31
2022-11-03T11:17:45.460Z,13.42
2022-11-03T11:20:31.867Z,13.48
2022-11-03T11:23:44.602Z,13.50
2022-11-03T11:26:18.519Z,13.54
2022-11-03T11:28:48.123Z,13.63
2022-11-03T11:31:32.879Z,13.72
2022-11-03T11:34:40.036Z,13.82
2022-11-03T11:37:35.751Z,13.86
2022-11-03T11:40:10.308Z,13.88
2022-11-03T11:43:16.686Z,13.86
2022-11-03T11:46:36.381Z,13.83
2022-11-03T11:49:18.487Z,13.82
2022-11-03T11:51:46.915Z,13.67
2022-11-03T11:54:19.572Z,13.28
2022-11-03T11:56:49.765Z,13.10
2022-11-03T11:59:24.823Z,13.02
2022-11-03T12:01:56.899Z,12.80
2022-11-03T12:04:29.225Z,12.87
2022-11-03T12:06:57.703Z,12.73
2022-11-03T12:09:28.291Z,12.80
2022-11-03T12:12:00.460Z,12.92
2022-11-03T12:14:35.348Z,13.03
2022-11-03T12:17:34.149Z,13.13
2022-11-03T12:20:36.052Z,13.20
2022-11-03T12:23:04.010Z,13.11
2022-11-03T12:25:37.328Z,13.11
2022-11-03T12:28:05.806Z,13.06
2022-11-03T12:30:39.403Z,13.00
2022-11-03T12:33:08.168Z,12.92
2022-11-03T12:35:38.428Z,12.87
2022-11-03T12:38:06.349Z,12.82
2022-11-03T12:40:34.267Z,12.80
2022-11-03T12:43:02.221Z,12.73
2022-11-03T12:45:30.143Z,12.59
2022-11-03T12:47:58.070Z,12.63
2022-11-03T12:50:26.029Z,12.56
2022-11-03T12:52:55.382Z,12.55
2022-11-03T12:55:23.412Z,12.53
2022-11-03T12:57:51.416Z,12.47
2022-11-03T13:00:19.699Z,12.24
2022-11-03T13:02:47.826Z,12.32
2022-11-03T13:05:16.090Z,12.35
2022-11-03T13:07:44.551Z,12.28
2022-11-03T13:10:13.834Z,12.07
2022-11-03T13:12:41.868Z,12.09
2022-11-03T13:15:13.480Z,12.25
2022-11-03T13:18:06.978Z,12.39
2022-11-03T13:20:29.468Z,12.44
2022-11-03T13:22:57.488Z,12.32
2022-11-03T13:25:28.560Z,12.33
2022-11-03T13:27:57.112Z,12.29
2022-11-03T13:30:26.821Z,12.18
2022-11-03T13:32:55.117Z,12.13
2022-11-03T13:35:23.132Z,12.30
2022-11-03T13:37:51.041Z,12.37
2022-11-03T13:43:08.670Z,12.50
2022-11-03T13:45:36.945Z,12.54
2022-11-03T13:50:53.739Z,12.57
2022-11-03T13:56:12.833Z,12.62
2022-11-03T14:01:32.445Z,12.58
2022-11-03T14:06:48.591Z,12.57
2022-11-03T14:09:16.544Z,12.50
2022-11-03T14:12:01.746Z,12.39
2022-11-03T14:14:31.051Z,12.46
2022-11-03T14:16:59.047Z,12.41
2022-11-03T14:19:33.584Z,12.45
2022-11-03T14:22:05.975Z,12.45
2022-11-03T14:24:34.453Z,12.47
2022-11-03T14:27:02.339Z,12.52
2022-11-03T14:29:31.656Z,12.54
2022-11-03T14:31:59.722Z,12.58
2022-11-03T14:34:27.689Z,12.57
2022-11-03T14:36:55.800Z,12.59
2022-11-03T14:39:23.724Z,12.56
2022-11-03T14:42:06.867Z,12.55
2022-11-03T14:44:38.473Z,12.55
2022-11-03T14:47:07.927Z,12.50
2022-11-03T14:49:36.495Z,12.51
2022-11-03T14:52:07.336Z,12.51
2022-11-03T14:54:36.103Z,12.48
2022-11-03T14:57:04.953Z,12.49
2022-11-03T14:59:33.678Z,12.48
2022-11-03T15:02:03.878Z,12.51
2022-11-03T15:04:31.901Z,12.51
2022-11-03T15:06:59.858Z,12.49
2022-11-03T15:09:27.819Z,12.47
2022-11-03T15:11:55.767Z,12.43
2022-11-03T15:14:23.718Z,12.41
2022-11-03T15:16:51.670Z,12.42
2022-11-03T15:19:20.962Z,12.44
2022-11-03T15:21:48.905Z,12.46
2022-11-03T15:27:04.912Z,12.45
2022-11-03T15:29:32.825Z,12.50
2022-11-03T15:32:00.749Z,12.48
2022-11-03T15:34:30.010Z,12.48
2022-11-03T15:36:57.899Z,12.43
2022-11-03T15:39:25.797Z,12.24
2022-11-03T15:41:53.712Z,12.34
2022-11-03T15:44:21.622Z,12.30
2022-11-03T15:46:49.507Z,12.25
2022-11-03T15:49:17.393Z,12.17
2022-11-03T15:51:46.701Z,12.31
2022-11-03T15:54:14.602Z,12.26
2022-11-03T15:56:42.517Z,12.34
2022-11-03T15:59:10.547Z,12.40
2022-11-03T16:01:38.625Z,12.40
2022-11-03T16:04:06.810Z,12.44
2022-11-03T16:07:01.629Z,12.38
2022-11-03T16:09:24.030Z,12.50
2022-11-03T16:11:51.958Z,12.49
2022-11-03T16:14:20.090Z,12.50
2022-11-03T16:16:48.133Z,12.43
2022-11-03T16:19:16.026Z,12.45
2022-11-03T16:21:44.011Z,12.55
2022-11-03T16:24:12.407Z,12.60
2022-11-03T16:26:41.730Z,12.70
2022-11-03T16:29:09.637Z,12.71
2022-11-03T16:31:37.579Z,12.66
2022-11-03T16:34:05.551Z,12.72
2022-11-03T16:36:33.499Z,12.76
2022-11-03T16:39:01.372Z,12.67
2022-11-03T16:41:29.314Z,12.68
2022-11-03T16:43:58.849Z,12.70
2022-11-03T16:46:26.800Z,12.49
2022-11-03T16:48:55.487Z,12.14
2022-11-03T16:51:23.524Z,11.93
2022-11-03T16:53:52.791Z,11.90
2022-11-03T16:56:20.689Z,11.80
2022-11-03T16:58:48.643Z,11.76
2022-11-03T17:01:18.608Z,11.72
2022-11-03T17:03:46.649Z,11.60
2022-11-03T17:06:14.702Z,11.40
2022-11-03T17:08:57.993Z,11.52
2022-11-03T17:11:38.029Z,11.29
2022-11-03T17:14:07.095Z,11.23
2022-11-03T17:16:36.443Z,11.23
2022-11-03T17:19:04.518Z,11.45
2022-11-03T17:21:32.446Z,11.76
2022-11-03T17:24:00.551Z,11.94
2022-11-03T17:26:37.790Z,12.08
2022-11-03T17:29:14.771Z,12.18
2022-11-03T17:31:44.199Z,12.03
2022-11-03T17:34:13.026Z,11.94
2022-11-03T17:36:41.370Z,11.80
2022-11-03T17:39:11.748Z,11.50
2022-11-03T17:41:39.723Z,11.36
2022-11-03T17:44:12.082Z,11.42
2022-11-03T17:46:40.021Z,11.56
2022-11-03T17:49:09.403Z,11.79
2022-11-03T17:51:42.529Z,11.95
2022-11-03T17:54:17.221Z,12.04
2022-11-03T17:56:45.474Z,12.11
2022-11-03T17:59:15.823Z,12.13
2022-11-03T18:01:44.003Z,12.23
2022-11-03T18:06:48.087Z,12.28
2022-11-03T18:09:16.233Z,12.28
2022-11-03T18:12:02.415Z,12.29
2022-11-03T18:14:31.262Z,12.26
2022-11-03T18:16:59.393Z,12.29
2022-11-03T18:19:28.798Z,12.31
2022-11-03T18:21:57.261Z,12.29
2022-11-03T18:24:26.822Z,12.30
2022-11-03T18:26:54.710Z,12.15
2022-11-03T18:29:22.598Z,11.65
2022-11-03T18:31:50.963Z,11.50
2022-11-03T18:34:22.506Z,11.83
2022-11-03T18:36:52.817Z,12.02
2022-11-03T18:39:24.078Z,12.10
2022-11-03T18:41:52.093Z,12.20
2022-11-03T18:44:21.997Z,12.24
2022-11-03T18:46:51.292Z,12.29
2022-11-03T18:49:20.240Z,12.33
2022-11-03T18:51:51.975Z,12.36
2022-11-03T18:54:22.476Z,12.29
2022-11-03T18:56:51.161Z,12.06
2022-11-03T18:59:23.809Z,11.73
2022-11-03T19:01:52.053Z,11.73
2022-11-03T19:04:20.092Z,11.87
2022-11-03T19:06:49.481Z,11.87
2022-11-03T19:09:22.179Z,11.94
2022-11-03T19:11:51.006Z,12.06
2022-11-03T19:14:26.378Z,12.03
2022-11-03T19:19:44.647Z,11.79
2022-11-03T19:22:14.627Z,11.50
2022-11-03T19:24:45.129Z,11.52
2022-11-03T19:27:17.710Z,11.72
2022-11-03T19:29:47.918Z,11.69
2022-11-03T19:32:19.621Z,11.91
2022-11-03T19:34:48.616Z,12.07
2022-11-03T19:37:16.581Z,12.14
2022-11-03T19:39:47.016Z,12.16
2022-11-03T19:42:27.716Z,12.08
2022-11-03T19:44:56.009Z,11.64
2022-11-03T19:47:28.247Z,11.25
2022-11-03T19:50:00.260Z,11.21
2022-11-03T19:52:30.357Z,11.19
2022-11-03T19:55:03.400Z,10.88
2022-11-03T19:57:32.393Z,10.67
2022-11-03T20:00:00.376Z,10.57
2022-11-03T20:02:29.101Z,10.60
2022-11-03T20:04:57.242Z,10.59
2022-11-03T20:07:30.915Z,10.53
2022-11-03T20:10:02.587Z,10.50
2022-11-03T20:12:31.533Z,10.41
2022-11-03T20:14:59.643Z,10.44
2022-11-03T20:17:27.518Z,10.58
2022-11-03T20:19:55.510Z,10.69
2022-11-03T20:22:29.155Z,10.73
2022-11-03T20:25:03.250Z,10.90
2022-11-03T20:27:32.589Z,11.10
2022-11-03T20:30:01.006Z,11.27
2022-11-03T20:32:28.960Z,11.36
2022-11-03T20:34:56.861Z,11.43
2022-11-03T20:37:24.818Z,11.44
2022-11-03T20:39:52.798Z,11.36
2022-11-03T20:42:24.686Z,11.28
2022-11-03T20:44:53.299Z,11.34
2022-11-03T20:47:21.196Z,11.36
2022-11-03T20:49:49.215Z,11.32
2022-11-03T20:52:17.572Z,11.29
2022-11-03T20:54:46.004Z,11.25
2022-11-03T20:57:14.893Z,11.29
2022-11-03T20:59:44.194Z,11.29
2022-11-03T21:02:12.984Z,11.33
2022-11-03T21:04:41.533Z,11.28
2022-11-03T21:07:12.434Z,11.26
2022-11-03T21:09:40.690Z,11.31
2022-11-03T21:12:13.775Z,11.27
2022-11-03T21:15:05.137Z,11.25
2022-11-03T21:17:51.962Z,11.19
2022-11-03T21:20:19.970Z,11.16
2022-11-03T21:22:52.923Z,11.14
2022-11-03T21:25:23.279Z,11.11
2022-11-03T21:27:51.784Z,11.23
2022-11-03T21:30:20.569Z,11.23
2022-11-03T21:32:49.895Z,11.28
2022-11-03T21:35:19.447Z,11.29
2022-11-03T21:37:47.674Z,11.21
2022-11-03T21:40:15.941Z,11.25
2022-11-03T21:43:01.719Z,11.28
2022-11-03T21:45:29.651Z,11.35
2022-11-03T21:48:16.848Z,11.30
2022-11-03T21:50:45.127Z,11.14
2022-11-03T21:53:13.525Z,11.16
2022-11-03T21:55:41.804Z,11.17
2022-11-03T21:58:10.034Z,11.22
2022-11-03T22:00:37.969Z,11.20
2022-11-03T22:03:07.715Z,11.25
2022-11-03T22:05:35.769Z,11.25
2022-11-03T22:08:03.753Z,11.24
2022-11-03T22:10:31.629Z,11.33
2022-11-03T22:12:59.880Z,11.35
2022-11-03T22:15:45.118Z,11.32
2022-11-03T22:18:14.402Z,11.24
2022-11-03T22:20:59.764Z,11.18
2022-11-03T22:23:45.187Z,11.16
2022-11-03T22:26:34.122Z,11.19
2022-11-03T22:29:19.987Z,11.19
2022-11-03T22:31:48.125Z,11.17
2022-11-03T22:34:35.019Z,11.16
2022-11-03T22:37:02.975Z,11.08
2022-11-03T22:39:48.293Z,11.03
2022-11-03T22:42:33.936Z,10.98
2022-11-03T22:45:19.255Z,11.08
2022-11-03T22:47:47.169Z,10.95
2022-11-03T22:50:16.564Z,10.90
2022-11-03T22:52:44.590Z,10.95
2022-11-03T22:55:11.476Z,11.05
2022-11-03T22:57:39.375Z,11.08
2022-11-03T23:00:08.086Z,11.05
2022-11-03T23:02:36.101Z,11.00
2022-11-03T23:05:04.188Z,10.92
2022-11-03T23:07:40.845Z,10.91
2022-11-03T23:10:10.054Z,10.94
2022-11-03T23:12:37.944Z,10.95
2022-11-03T23:15:24.303Z,11.04
2022-11-03T23:18:09.498Z,10.97
2022-11-03T23:20:56.496Z,11.03
2022-11-03T23:23:43.436Z,11.11
2022-11-03T23:26:11.475Z,11.17
2022-11-03T23:28:39.413Z,11.13
2022-11-03T23:31:07.525Z,11.11
2022-11-03T23:33:35.750Z,11.03
2022-11-03T23:36:04.652Z,10.99
2022-11-03T23:38:34.460Z,10.86
2022-11-03T23:41:02.918Z,10.87
2022-11-03T23:43:31.015Z,10.91
2022-11-03T23:46:16.463Z,10.95
2022-11-03T23:48:47.574Z,10.90
2022-11-03T23:51:16.672Z,10.88
2022-11-03T23:53:46.848Z,10.90
2022-11-03T23:56:32.909Z,10.90
2022-11-03T23:59:00.862Z,10.90
